sensor_id;sensor_type;location;lat;lon;timestamp;P1;durP1;ratioP1;P2;durP2;ratioP2
32451;SDS011;45528;52.102;5.242;2022-11-20T00:00:50;16.5;;;11.0;;
32451;SDS011;45528;52.102;5.242;2022-11-20T00:04:03;18.8;;;11.6;;
32451;SDS011;45528;52.102;5.242;2022-11-20T00:05:39;18.0;;;11.3;;
32451;SDS011;45528;52.102;5.242;2022-11-20T00:07:16;17.5;;;11.1;;
32451;SDS011;45528;52.102;5.242;2022-11-20T00:10:31;16.9;;;11.4;;
32451;SDS011;45528;52.102;5.242;2022-11-20T00:12:08;16.3;;;11.1;;
32451;SDS011;45528;52.102;5.242;2022-11-20T00:13:44;18.11;;;11.5;;
32451;SDS011;45528;52.102;5.242;2022-11-20T00:15:21;19.5;;;11.9;;
32451;SDS011;45528;52.102;5.242;2022-11-20T00:18:34;18.2;;;11.7;;
32451;SDS011;45528;52.102;5.242;2022-11-20T00:20:11;18.61;;;12.2;;
32451;SDS011;45528;52.102;5.242;2022-11-20T00:21:51;18.0;;;10.9;;
32451;SDS011;45528;52.102;5.242;2022-11-20T00:25:03;19.41;;;11.5;;
32451;SDS011;45528;52.102;5.242;2022-11-20T00:26:40;18.5;;;12.1;;
32451;SDS011;45528;52.102;5.242;2022-11-20T00:28:17;22.0;;;12.3;;
32451;SDS011;45528;52.102;5.242;2022-11-20T00:29:53;22.0;;;12.3;;
32451;SDS011;45528;52.102;5.242;2022-11-20T00:33:06;17.2;;;11.7;;
32451;SDS011;45528;52.102;5.242;2022-11-20T00:34:42;19.2;;;11.4;;
32451;SDS011;45528;52.102;5.242;2022-11-20T00:36:19;18.41;;;11.7;;
32451;SDS011;45528;52.102;5.242;2022-11-20T00:39:34;20.0;;;11.3;;
32451;SDS011;45528;52.102;5.242;2022-11-20T00:41:11;20.41;;;12.5;;
32451;SDS011;45528;52.102;5.242;2022-11-20T00:42:49;20.8;;;11.6;;
32451;SDS011;45528;52.102;5.242;2022-11-20T00:46:03;20.0;;;12.2;;
32451;SDS011;45528;52.102;5.242;2022-11-20T00:47:41;19.61;;;11.7;;
32451;SDS011;45528;52.102;5.242;2022-11-20T00:49:17;17.91;;;11.1;;
32451;SDS011;45528;52.102;5.242;2022-11-20T00:50:55;19.61;;;12.3;;
32451;SDS011;45528;52.102;5.242;2022-11-20T00:54:10;21.3;;;12.3;;
32451;SDS011;45528;52.102;5.242;2022-11-20T00:55:52;19.61;;;11.5;;
32451;SDS011;45528;52.102;5.242;2022-11-20T00:57:29;18.7;;;11.5;;
32451;SDS011;45528;52.102;5.242;2022-11-20T01:00:41;20.2;;;11.8;;
32451;SDS011;45528;52.102;5.242;2022-11-20T01:02:17;20.5;;;11.9;;
32451;SDS011;45528;52.102;5.242;2022-11-20T01:03:55;20.2;;;12.0;;
32451;SDS011;45528;52.102;5.242;2022-11-20T01:05:34;18.91;;;12.0;;
32451;SDS011;45528;52.102;5.242;2022-11-20T01:08:47;20.11;;;12.1;;
32451;SDS011;45528;52.102;5.242;2022-11-20T01:10:25;20.3;;;12.1;;
32451;SDS011;45528;52.102;5.242;2022-11-20T01:12:01;19.7;;;11.8;;
32451;SDS011;45528;52.102;5.242;2022-11-20T01:15:13;17.8;;;11.7;;
32451;SDS011;45528;52.102;5.242;2022-11-20T01:16:50;17.7;;;11.4;;
32451;SDS011;45528;52.102;5.242;2022-11-20T01:18:28;16.61;;;11.5;;
32451;SDS011;45528;52.102;5.242;2022-11-20T01:21:43;20.9;;;12.4;;
32451;SDS011;45528;52.102;5.242;2022-11-20T01:23:20;19.3;;;11.6;;
32451;SDS011;45528;52.102;5.242;2022-11-20T01:24:56;18.8;;;11.9;;
32451;SDS011;45528;52.102;5.242;2022-11-20T01:26:33;18.61;;;11.7;;
32451;SDS011;45528;52.102;5.242;2022-11-20T01:29:48;17.5;;;12.3;;
32451;SDS011;45528;52.102;5.242;2022-11-20T01:31:25;20.6;;;12.1;;
32451;SDS011;45528;52.102;5.242;2022-11-20T01:33:03;17.7;;;11.5;;
32451;SDS011;45528;52.102;5.242;2022-11-20T01:36:16;17.91;;;11.8;;
32451;SDS011;45528;52.102;5.242;2022-11-20T01:37:55;17.11;;;11.5;;
32451;SDS011;45528;52.102;5.242;2022-11-20T01:39:31;20.2;;;12.2;;
32451;SDS011;45528;52.102;5.242;2022-11-20T01:41:08;29.6;;;15.2;;
32451;SDS011;45528;52.102;5.242;2022-11-20T01:45:50;21.6;;;12.5;;
32451;SDS011;45528;52.102;5.242;2022-11-20T01:47:35;19.41;;;12.4;;
32451;SDS011;45528;52.102;5.242;2022-11-20T01:50:59;19.3;;;11.5;;
32451;SDS011;45528;52.102;5.242;2022-11-20T01:52:38;18.91;;;11.5;;
32451;SDS011;45528;52.102;5.242;2022-11-20T01:54:19;19.8;;;11.7;;
32451;SDS011;45528;52.102;5.242;2022-11-20T01:56:01;18.7;;;11.6;;
32451;SDS011;45528;52.102;5.242;2022-11-20T01:59:21;17.91;;;11.7;;
32451;SDS011;45528;52.102;5.242;2022-11-20T02:01:02;18.5;;;11.7;;
32451;SDS011;45528;52.102;5.242;2022-11-20T02:02:41;20.0;;;11.8;;
32451;SDS011;45528;52.102;5.242;2022-11-20T02:04:22;18.7;;;11.2;;
32451;SDS011;45528;52.102;5.242;2022-11-20T02:07:43;18.7;;;11.3;;
32451;SDS011;45528;52.102;5.242;2022-11-20T02:09:20;17.5;;;10.9;;
32451;SDS011;45528;52.102;5.242;2022-11-20T02:10:56;19.11;;;11.4;;
32451;SDS011;45528;52.102;5.242;2022-11-20T02:13:50;21.2;;;11.6;;
32451;SDS011;45528;52.102;5.242;2022-11-20T02:16:05;18.0;;;11.5;;
32451;SDS011;45528;52.102;5.242;2022-11-20T02:17:47;19.11;;;11.9;;
32451;SDS011;45528;52.102;5.242;2022-11-20T02:19:24;21.8;;;12.2;;
32451;SDS011;45528;52.102;5.242;2022-11-20T02:21:06;22.0;;;12.7;;
32451;SDS011;45528;52.102;5.242;2022-11-20T02:24:33;19.7;;;12.0;;
32451;SDS011;45528;52.102;5.242;2022-11-20T02:26:11;18.7;;;12.0;;
32451;SDS011;45528;52.102;5.242;2022-11-20T02:27:51;18.11;;;11.4;;
32451;SDS011;45528;52.102;5.242;2022-11-20T02:29:27;19.0;;;11.4;;
32451;SDS011;45528;52.102;5.242;2022-11-20T02:32:46;19.7;;;11.7;;
32451;SDS011;45528;52.102;5.242;2022-11-20T02:34:22;18.2;;;11.7;;
32451;SDS011;45528;52.102;5.242;2022-11-20T02:35:58;20.41;;;12.5;;
32451;SDS011;45528;52.102;5.242;2022-11-20T02:37:35;16.11;;;11.5;;
32451;SDS011;45528;52.102;5.242;2022-11-20T02:40:53;19.7;;;12.1;;
32451;SDS011;45528;52.102;5.242;2022-11-20T02:42:29;18.41;;;11.6;;
32451;SDS011;45528;52.102;5.242;2022-11-20T02:44:05;19.2;;;11.9;;
32451;SDS011;45528;52.102;5.242;2022-11-20T02:47:17;18.8;;;12.2;;
32451;SDS011;45528;52.102;5.242;2022-11-20T02:48:54;19.61;;;11.4;;
32451;SDS011;45528;52.102;5.242;2022-11-20T02:50:30;18.7;;;11.6;;
32451;SDS011;45528;52.102;5.242;2022-11-20T02:53:42;17.0;;;11.5;;
32451;SDS011;45528;52.102;5.242;2022-11-20T02:55:18;20.5;;;11.8;;
32451;SDS011;45528;52.102;5.242;2022-11-20T02:56:55;18.8;;;12.0;;
32451;SDS011;45528;52.102;5.242;2022-11-20T02:58:31;19.5;;;11.7;;
32451;SDS011;45528;52.102;5.242;2022-11-20T03:01:44;22.1;;;12.4;;
32451;SDS011;45528;52.102;5.242;2022-11-20T03:03:20;19.7;;;12.2;;
32451;SDS011;45528;52.102;5.242;2022-11-20T03:04:57;21.1;;;12.3;;
32451;SDS011;45528;52.102;5.242;2022-11-20T03:08:10;17.7;;;11.6;;
32451;SDS011;45528;52.102;5.242;2022-11-20T03:09:46;18.11;;;11.6;;
32451;SDS011;45528;52.102;5.242;2022-11-20T03:11:22;20.2;;;12.7;;
32451;SDS011;45528;52.102;5.242;2022-11-20T03:14:35;18.2;;;11.8;;
32451;SDS011;45528;52.102;5.242;2022-11-20T03:16:13;18.7;;;11.9;;
32451;SDS011;45528;52.102;5.242;2022-11-20T03:17:52;16.8;;;11.9;;
32451;SDS011;45528;52.102;5.242;2022-11-20T03:19:30;20.2;;;12.3;;
32451;SDS011;45528;52.102;5.242;2022-11-20T03:22:43;19.11;;;12.0;;
32451;SDS011;45528;52.102;5.242;2022-11-20T03:24:19;16.7;;;11.4;;
32451;SDS011;45528;52.102;5.242;2022-11-20T03:25:55;17.2;;;11.8;;
32451;SDS011;45528;52.102;5.242;2022-11-20T03:29:09;21.9;;;12.5;;
32451;SDS011;45528;52.102;5.242;2022-11-20T03:30:45;18.7;;;12.2;;
32451;SDS011;45528;52.102;5.242;2022-11-20T03:32:21;17.91;;;11.5;;
32451;SDS011;45528;52.102;5.242;2022-11-20T03:35:34;21.3;;;11.9;;
32451;SDS011;45528;52.102;5.242;2022-11-20T03:37:10;17.41;;;11.8;;
32451;SDS011;45528;52.102;5.242;2022-11-20T03:38:47;18.2;;;11.7;;
32451;SDS011;45528;52.102;5.242;2022-11-20T03:40:24;19.3;;;12.0;;
32451;SDS011;45528;52.102;5.242;2022-11-20T03:43:36;20.9;;;13.3;;
32451;SDS011;45528;52.102;5.242;2022-11-20T03:45:14;18.61;;;13.1;;
32451;SDS011;45528;52.102;5.242;2022-11-20T03:46:52;19.61;;;13.1;;
32451;SDS011;45528;52.102;5.242;2022-11-20T03:50:06;20.7;;;13.7;;
32451;SDS011;45528;52.102;5.242;2022-11-20T03:51:43;17.41;;;10.5;;
32451;SDS011;45528;52.102;5.242;2022-11-20T03:53:19;19.7;;;11.9;;
32451;SDS011;45528;52.102;5.242;2022-11-20T03:54:56;19.61;;;12.1;;
32451;SDS011;45528;52.102;5.242;2022-11-20T03:58:11;16.5;;;10.8;;
32451;SDS011;45528;52.102;5.242;2022-11-20T03:59:47;18.7;;;11.5;;
32451;SDS011;45528;52.102;5.242;2022-11-20T04:01:23;18.3;;;11.8;;
32451;SDS011;45528;52.102;5.242;2022-11-20T04:04:39;20.9;;;11.9;;
32451;SDS011;45528;52.102;5.242;2022-11-20T04:06:16;20.2;;;12.1;;
32451;SDS011;45528;52.102;5.242;2022-11-20T04:07:54;17.5;;;11.7;;
32451;SDS011;45528;52.102;5.242;2022-11-20T04:11:08;18.5;;;11.6;;
32451;SDS011;45528;52.102;5.242;2022-11-20T04:12:46;15.5;;;10.7;;
32451;SDS011;45528;52.102;5.242;2022-11-20T04:14:22;17.2;;;11.7;;
32451;SDS011;45528;52.102;5.242;2022-11-20T04:15:58;19.0;;;11.9;;
32451;SDS011;45528;52.102;5.242;2022-11-20T04:19:12;15.9;;;10.8;;
32451;SDS011;45528;52.102;5.242;2022-11-20T04:20:51;18.0;;;11.7;;
32451;SDS011;45528;52.102;5.242;2022-11-20T04:22:27;19.91;;;11.4;;
32451;SDS011;45528;52.102;5.242;2022-11-20T04:25:42;19.0;;;11.8;;
32451;SDS011;45528;52.102;5.242;2022-11-20T04:27:18;18.11;;;10.8;;
32451;SDS011;45528;52.102;5.242;2022-11-20T04:28:55;18.2;;;11.7;;
32451;SDS011;45528;52.102;5.242;2022-11-20T04:30:32;18.5;;;11.5;;
32451;SDS011;45528;52.102;5.242;2022-11-20T04:33:44;18.61;;;11.5;;
32451;SDS011;45528;52.102;5.242;2022-11-20T04:35:22;17.8;;;11.7;;
32451;SDS011;45528;52.102;5.242;2022-11-20T04:36:57;20.0;;;11.8;;
32451;SDS011;45528;52.102;5.242;2022-11-20T04:40:09;18.91;;;11.2;;
32451;SDS011;45528;52.102;5.242;2022-11-20T04:41:46;19.7;;;11.6;;
32451;SDS011;45528;52.102;5.242;2022-11-20T04:43:22;19.0;;;11.7;;
32451;SDS011;45528;52.102;5.242;2022-11-20T04:46:36;15.9;;;11.1;;
32451;SDS011;45528;52.102;5.242;2022-11-20T04:48:14;18.5;;;11.4;;
32451;SDS011;45528;52.102;5.242;2022-11-20T04:49:50;17.5;;;10.7;;
32451;SDS011;45528;52.102;5.242;2022-11-20T04:51:27;19.0;;;11.3;;
32451;SDS011;45528;52.102;5.242;2022-11-20T04:54:39;16.7;;;10.7;;
32451;SDS011;45528;52.102;5.242;2022-11-20T04:56:15;16.8;;;11.0;;
32451;SDS011;45528;52.102;5.242;2022-11-20T04:57:52;16.4;;;10.5;;
32451;SDS011;45528;52.102;5.242;2022-11-20T05:01:05;18.2;;;11.5;;
32451;SDS011;45528;52.102;5.242;2022-11-20T05:02:43;18.7;;;11.0;;
32451;SDS011;45528;52.102;5.242;2022-11-20T05:04:19;17.5;;;10.6;;
32451;SDS011;45528;52.102;5.242;2022-11-20T05:07:31;16.61;;;10.6;;
32451;SDS011;45528;52.102;5.242;2022-11-20T05:09:08;16.9;;;10.9;;
32451;SDS011;45528;52.102;5.242;2022-11-20T05:10:44;18.91;;;10.9;;
32451;SDS011;45528;52.102;5.242;2022-11-20T05:12:20;15.5;;;10.4;;
32451;SDS011;45528;52.102;5.242;2022-11-20T05:15:34;17.41;;;11.3;;
32451;SDS011;45528;52.102;5.242;2022-11-20T05:17:11;16.11;;;10.6;;
32451;SDS011;45528;52.102;5.242;2022-11-20T05:18:49;20.7;;;11.6;;
32451;SDS011;45528;52.102;5.242;2022-11-20T05:22:02;17.3;;;10.3;;
32451;SDS011;45528;52.102;5.242;2022-11-20T05:23:41;20.7;;;11.2;;
32451;SDS011;45528;52.102;5.242;2022-11-20T05:25:18;18.5;;;11.6;;
32451;SDS011;45528;52.102;5.242;2022-11-20T05:28:31;19.2;;;11.4;;
32451;SDS011;45528;52.102;5.242;2022-11-20T05:30:08;18.8;;;10.9;;
32451;SDS011;45528;52.102;5.242;2022-11-20T05:31:48;17.11;;;10.7;;
32451;SDS011;45528;52.102;5.242;2022-11-20T05:33:24;17.61;;;11.3;;
32451;SDS011;45528;52.102;5.242;2022-11-20T05:36:36;18.0;;;11.0;;
32451;SDS011;45528;52.102;5.242;2022-11-20T05:38:12;17.11;;;10.6;;
32451;SDS011;45528;52.102;5.242;2022-11-20T05:39:48;17.5;;;11.1;;
32451;SDS011;45528;52.102;5.242;2022-11-20T05:43:01;18.5;;;11.9;;
32451;SDS011;45528;52.102;5.242;2022-11-20T05:44:38;19.3;;;10.9;;
32451;SDS011;45528;52.102;5.242;2022-11-20T05:46:16;19.5;;;11.3;;
32451;SDS011;45528;52.102;5.242;2022-11-20T05:47:57;17.41;;;11.4;;
32451;SDS011;45528;52.102;5.242;2022-11-20T05:51:11;17.7;;;10.6;;
32451;SDS011;45528;52.102;5.242;2022-11-20T05:52:51;16.8;;;11.0;;
32451;SDS011;45528;52.102;5.242;2022-11-20T05:54:27;15.8;;;10.7;;
32451;SDS011;45528;52.102;5.242;2022-11-20T05:57:44;18.2;;;11.2;;
32451;SDS011;45528;52.102;5.242;2022-11-20T05:59:21;17.3;;;11.0;;
32451;SDS011;45528;52.102;5.242;2022-11-20T06:01:02;18.61;;;11.4;;
32451;SDS011;45528;52.102;5.242;2022-11-20T06:02:41;19.3;;;11.6;;
32451;SDS011;45528;52.102;5.242;2022-11-20T06:05:53;18.11;;;11.8;;
32451;SDS011;45528;52.102;5.242;2022-11-20T06:07:30;21.0;;;12.3;;
32451;SDS011;45528;52.102;5.242;2022-11-20T06:09:06;20.0;;;11.6;;
32451;SDS011;45528;52.102;5.242;2022-11-20T06:12:18;18.3;;;11.0;;
32451;SDS011;45528;52.102;5.242;2022-11-20T06:13:54;19.41;;;11.5;;
32451;SDS011;45528;52.102;5.242;2022-11-20T06:15:30;19.41;;;11.5;;
32451;SDS011;45528;52.102;5.242;2022-11-20T06:18:43;21.1;;;12.3;;
32451;SDS011;45528;52.102;5.242;2022-11-20T06:20:20;19.5;;;11.5;;
32451;SDS011;45528;52.102;5.242;2022-11-20T06:21:57;23.6;;;12.4;;
32451;SDS011;45528;52.102;5.242;2022-11-20T06:23:34;19.11;;;12.2;;
32451;SDS011;45528;52.102;5.242;2022-11-20T06:26:49;18.61;;;11.3;;
32451;SDS011;45528;52.102;5.242;2022-11-20T06:28:25;19.3;;;11.4;;
32451;SDS011;45528;52.102;5.242;2022-11-20T06:30:01;23.1;;;14.6;;
32451;SDS011;45528;52.102;5.242;2022-11-20T06:33:15;19.8;;;13.4;;
32451;SDS011;45528;52.102;5.242;2022-11-20T06:34:51;22.3;;;14.4;;
32451;SDS011;45528;52.102;5.242;2022-11-20T06:36:27;21.1;;;14.1;;
32451;SDS011;45528;52.102;5.242;2022-11-20T06:39:42;19.91;;;13.7;;
32451;SDS011;45528;52.102;5.242;2022-11-20T06:41:18;17.8;;;11.5;;
32451;SDS011;45528;52.102;5.242;2022-11-20T06:42:57;16.7;;;11.1;;
32451;SDS011;45528;52.102;5.242;2022-11-20T06:44:33;16.9;;;11.6;;
32451;SDS011;45528;52.102;5.242;2022-11-20T06:47:48;17.41;;;10.9;;
32451;SDS011;45528;52.102;5.242;2022-11-20T06:49:25;18.61;;;11.8;;
32451;SDS011;45528;52.102;5.242;2022-11-20T06:51:02;18.5;;;11.3;;
32451;SDS011;45528;52.102;5.242;2022-11-20T06:54:15;15.7;;;10.8;;
32451;SDS011;45528;52.102;5.242;2022-11-20T06:55:52;19.0;;;11.1;;
32451;SDS011;45528;52.102;5.242;2022-11-20T06:57:32;16.8;;;11.3;;
32451;SDS011;45528;52.102;5.242;2022-11-20T06:59:08;22.6;;;12.4;;
32451;SDS011;45528;52.102;5.242;2022-11-20T07:02:21;17.91;;;11.0;;
32451;SDS011;45528;52.102;5.242;2022-11-20T07:03:57;18.7;;;11.2;;
32451;SDS011;45528;52.102;5.242;2022-11-20T07:05:33;19.91;;;12.1;;
32451;SDS011;45528;52.102;5.242;2022-11-20T07:08:47;17.2;;;10.9;;
32451;SDS011;45528;52.102;5.242;2022-11-20T07:10:23;18.2;;;11.4;;
32451;SDS011;45528;52.102;5.242;2022-11-20T07:12:00;18.7;;;11.8;;
32451;SDS011;45528;52.102;5.242;2022-11-20T07:15:12;18.8;;;11.9;;
32451;SDS011;45528;52.102;5.242;2022-11-20T07:16:48;18.7;;;11.5;;
32451;SDS011;45528;52.102;5.242;2022-11-20T07:18:26;18.7;;;11.1;;
32451;SDS011;45528;52.102;5.242;2022-11-20T07:20:02;21.6;;;12.4;;
32451;SDS011;45528;52.102;5.242;2022-11-20T07:23:14;18.11;;;11.3;;
32451;SDS011;45528;52.102;5.242;2022-11-20T07:24:50;20.2;;;11.4;;
32451;SDS011;45528;52.102;5.242;2022-11-20T07:26:26;20.0;;;11.8;;
32451;SDS011;45528;52.102;5.242;2022-11-20T07:29:40;19.3;;;11.9;;
32451;SDS011;45528;52.102;5.242;2022-11-20T07:31:16;20.11;;;12.2;;
32451;SDS011;45528;52.102;5.242;2022-11-20T07:32:52;18.7;;;11.7;;
32451;SDS011;45528;52.102;5.242;2022-11-20T07:36:07;18.8;;;11.7;;
32451;SDS011;45528;52.102;5.242;2022-11-20T07:37:45;18.8;;;12.0;;
32451;SDS011;45528;52.102;5.242;2022-11-20T07:39:22;19.61;;;12.6;;
32451;SDS011;45528;52.102;5.242;2022-11-20T07:41:01;19.3;;;11.3;;
32451;SDS011;45528;52.102;5.242;2022-11-20T07:44:14;19.0;;;12.6;;
32451;SDS011;45528;52.102;5.242;2022-11-20T07:45:50;21.0;;;12.4;;
32451;SDS011;45528;52.102;5.242;2022-11-20T07:47:28;19.0;;;12.2;;
32451;SDS011;45528;52.102;5.242;2022-11-20T07:50:41;19.5;;;12.7;;
32451;SDS011;45528;52.102;5.242;2022-11-20T07:52:17;21.7;;;13.1;;
32451;SDS011;45528;52.102;5.242;2022-11-20T07:53:53;21.2;;;14.6;;
32451;SDS011;45528;52.102;5.242;2022-11-20T07:57:07;30.7;;;20.2;;
32451;SDS011;45528;52.102;5.242;2022-11-20T07:58:43;75.41;;;44.8;;
32451;SDS011;45528;52.102;5.242;2022-11-20T08:00:19;56.4;;;31.9;;
32451;SDS011;45528;52.102;5.242;2022-11-20T08:01:55;38.6;;;23.8;;
32451;SDS011;45528;52.102;5.242;2022-11-20T08:05:09;37.81;;;22.6;;
32451;SDS011;45528;52.102;5.242;2022-11-20T08:06:46;41.2;;;24.5;;
32451;SDS011;45528;52.102;5.242;2022-11-20T08:08:22;33.5;;;19.0;;
32451;SDS011;45528;52.102;5.242;2022-11-20T08:15:47;27.2;;;15.7;;
32451;SDS011;45528;52.102;5.242;2022-11-20T08:17:25;23.2;;;15.4;;
32451;SDS011;45528;52.102;5.242;2022-11-20T08:19:01;22.7;;;14.5;;
32451;SDS011;45528;52.102;5.242;2022-11-20T08:22:16;24.9;;;14.2;;
32451;SDS011;45528;52.102;5.242;2022-11-20T08:23:51;24.0;;;15.0;;
32451;SDS011;45528;52.102;5.242;2022-11-20T08:25:28;24.3;;;15.3;;
32451;SDS011;45528;52.102;5.242;2022-11-20T08:27:05;28.8;;;16.7;;
32451;SDS011;45528;52.102;5.242;2022-11-20T08:30:18;26.9;;;18.0;;
32451;SDS011;45528;52.102;5.242;2022-11-20T08:31:54;32.6;;;21.5;;
32451;SDS011;45528;52.102;5.242;2022-11-20T08:33:32;33.1;;;20.9;;
32451;SDS011;45528;52.102;5.242;2022-11-20T08:36:45;35.31;;;23.4;;
32451;SDS011;45528;52.102;5.242;2022-11-20T08:38:21;27.4;;;17.61;;
32451;SDS011;45528;52.102;5.242;2022-11-20T08:39:57;27.1;;;17.0;;
32451;SDS011;45528;52.102;5.242;2022-11-20T08:41:33;25.9;;;16.5;;
32451;SDS011;45528;52.102;5.242;2022-11-20T08:44:46;25.1;;;16.2;;
32451;SDS011;45528;52.102;5.242;2022-11-20T08:46:22;24.6;;;15.7;;
32451;SDS011;45528;52.102;5.242;2022-11-20T08:48:00;27.9;;;17.0;;
32451;SDS011;45528;52.102;5.242;2022-11-20T08:51:14;28.0;;;18.3;;
32451;SDS011;45528;52.102;5.242;2022-11-20T08:52:51;29.7;;;20.5;;
32451;SDS011;45528;52.102;5.242;2022-11-20T08:54:27;28.0;;;18.61;;
32451;SDS011;45528;52.102;5.242;2022-11-20T08:57:40;24.5;;;16.9;;
32451;SDS011;45528;52.102;5.242;2022-11-20T08:59:16;27.3;;;17.7;;
32451;SDS011;45528;52.102;5.242;2022-11-20T09:00:53;26.5;;;17.41;;
32451;SDS011;45528;52.102;5.242;2022-11-20T09:02:30;28.3;;;18.3;;
32451;SDS011;45528;52.102;5.242;2022-11-20T09:05:42;26.2;;;16.4;;
32451;SDS011;45528;52.102;5.242;2022-11-20T09:07:18;26.3;;;16.9;;
32451;SDS011;45528;52.102;5.242;2022-11-20T09:08:55;25.4;;;17.2;;
32451;SDS011;45528;52.102;5.242;2022-11-20T09:12:08;29.5;;;18.0;;
32451;SDS011;45528;52.102;5.242;2022-11-20T09:13:44;25.1;;;17.11;;
32451;SDS011;45528;52.102;5.242;2022-11-20T09:15:21;28.0;;;17.7;;
32451;SDS011;45528;52.102;5.242;2022-11-20T09:18:36;26.5;;;17.41;;
32451;SDS011;45528;52.102;5.242;2022-11-20T09:20:13;26.3;;;17.7;;
32451;SDS011;45528;52.102;5.242;2022-11-20T09:21:50;25.3;;;16.7;;
32451;SDS011;45528;52.102;5.242;2022-11-20T09:23:27;28.7;;;18.11;;
32451;SDS011;45528;52.102;5.242;2022-11-20T09:26:44;27.1;;;17.41;;
32451;SDS011;45528;52.102;5.242;2022-11-20T09:28:21;27.9;;;17.91;;
32451;SDS011;45528;52.102;5.242;2022-11-20T09:29:57;29.9;;;18.41;;
32451;SDS011;45528;52.102;5.242;2022-11-20T09:33:09;29.0;;;18.41;;
32451;SDS011;45528;52.102;5.242;2022-11-20T09:34:45;28.3;;;18.8;;
32451;SDS011;45528;52.102;5.242;2022-11-20T09:36:22;29.6;;;18.0;;
32451;SDS011;45528;52.102;5.242;2022-11-20T09:39:34;27.7;;;18.11;;
32451;SDS011;45528;52.102;5.242;2022-11-20T09:41:20;29.6;;;18.11;;
32451;SDS011;45528;52.102;5.242;2022-11-20T09:43:22;25.8;;;17.91;;
